createdAt,value
2022-10-05T00:03:42.432Z,2.87
2022-10-05T00:08:44.517Z,2.72
2022-10-05T00:13:47.079Z,2.90
2022-10-05T00:18:51.688Z,2.85
2022-10-05T00:23:57.534Z,2.22
2022-10-05T00:29:01.461Z,2.35
2022-10-05T00:34:04.194Z,2.60
2022-10-05T00:39:06.026Z,2.45
2022-10-05T00:44:23.542Z,2.92
2022-10-05T00:49:35.323Z,2.85
2022-10-05T00:54:50.538Z,2.70
2022-10-05T01:00:05.896Z,3.25
2022-10-05T01:05:16.951Z,3.33
2022-10-05T01:10:18.832Z,3.47
2022-10-05T01:15:34.933Z,4.10
2022-10-05T01:21:05.124Z,3.30
2022-10-05T01:26:22.136Z,3.17
2022-10-05T01:31:54.908Z,3.40
2022-10-05T01:37:12.947Z,3.60
2022-10-05T01:42:22.881Z,3.35
2022-10-05T01:47:48.144Z,4.10
2022-10-05T01:53:17.472Z,4.22
2022-10-05T01:58:37.988Z,3.70
2022-10-05T02:03:53.077Z,3.47
2022-10-05T02:09:17.384Z,3.47
2022-10-05T02:14:25.317Z,3.05
2022-10-05T02:19:37.878Z,3.00
2022-10-05T02:24:48.044Z,3.20
2022-10-05T02:29:51.650Z,3.67
2022-10-05T02:34:58.066Z,3.50
2022-10-05T02:40:06.523Z,4.10
2022-10-05T02:45:14.918Z,3.47
2022-10-05T02:51:05.075Z,3.35
2022-10-05T02:56:23.740Z,4.20
2022-10-05T03:01:37.155Z,3.67
2022-10-05T03:06:50.928Z,4.10
2022-10-05T03:12:10.998Z,3.40
2022-10-05T03:17:22.418Z,4.47
2022-10-05T03:22:44.549Z,3.80
2022-10-05T03:27:59.621Z,4.30
2022-10-05T03:33:14.503Z,4.03
2022-10-05T03:38:25.678Z,4.07
2022-10-05T03:44:09.649Z,3.63
2022-10-05T03:49:42.965Z,4.30
2022-10-05T03:54:48.886Z,4.47
2022-10-05T04:00:05.072Z,4.20
2022-10-05T04:05:20.252Z,5.47
2022-10-05T04:10:27.245Z,3.90
2022-10-05T04:15:40.533Z,4.30
2022-10-05T04:20:46.569Z,6.20
2022-10-05T04:25:56.345Z,4.80
2022-10-05T04:31:00.610Z,3.90
2022-10-05T04:36:26.440Z,4.40
2022-10-05T04:42:03.307Z,4.50
2022-10-05T04:47:27.397Z,4.13
2022-10-05T04:52:51.255Z,3.92
2022-10-05T04:58:11.372Z,4.95
2022-10-05T05:03:42.020Z,4.40
2022-10-05T05:09:11.902Z,4.78
2022-10-05T05:14:28.925Z,5.47
2022-10-05T05:19:50.628Z,4.75
2022-10-05T05:25:11.600Z,5.20
2022-10-05T05:30:42.918Z,5.88
2022-10-05T05:35:53.926Z,4.80
2022-10-05T05:41:15.468Z,5.22
2022-10-05T05:47:02.880Z,5.53
2022-10-05T05:52:28.661Z,5.28
2022-10-05T05:57:40.572Z,6.13
2022-10-05T06:02:51.838Z,6.20
2022-10-05T06:07:55.965Z,5.75
2022-10-05T06:13:04.338Z,5.85
2022-10-05T06:18:16.923Z,4.78
2022-10-05T06:23:25.473Z,4.53
2022-10-05T06:28:29.804Z,3.30
2022-10-05T06:33:50.977Z,3.40
2022-10-05T06:39:28.956Z,3.05
2022-10-05T06:44:39.547Z,2.55
2022-10-05T06:50:53.351Z,2.40
2022-10-05T06:56:13.541Z,2.80
2022-10-05T07:01:29.169Z,6.13
2022-10-05T07:06:43.275Z,5.47
2022-10-05T07:12:18.149Z,4.78
2022-10-05T07:17:45.477Z,4.57
2022-10-05T07:23:03.490Z,4.80
2022-10-05T07:28:18.514Z,5.38
2022-10-05T07:33:46.607Z,5.60
2022-10-05T07:39:06.029Z,3.65
2022-10-05T07:44:36.521Z,3.80
2022-10-05T07:49:48.581Z,3.75
2022-10-05T07:54:56.457Z,3.75
2022-10-05T08:00:05.262Z,4.13
2022-10-05T08:05:36.034Z,4.25
2022-10-05T08:10:44.556Z,3.45
2022-10-05T08:15:50.837Z,3.42
2022-10-05T08:20:58.582Z,3.40
2022-10-05T08:26:08.745Z,3.65
2022-10-05T08:31:51.835Z,3.97
2022-10-05T08:37:13.369Z,4.15
2022-10-05T08:42:27.284Z,4.60
2022-10-05T08:47:41.015Z,4.40
2022-10-05T08:53:09.680Z,4.63
2022-10-05T08:58:54.635Z,4.75
2022-10-05T09:04:20.236Z,4.22
2022-10-05T09:09:51.922Z,3.92
2022-10-05T09:15:26.854Z,4.35
2022-10-05T09:20:53.941Z,3.97
2022-10-05T09:26:07.763Z,4.25
2022-10-05T09:31:29.937Z,4.15
2022-10-05T09:37:20.093Z,3.90
2022-10-05T09:42:47.744Z,3.80
2022-10-05T09:48:21.831Z,3.30
2022-10-05T09:58:49.476Z,3.30
2022-10-05T10:04:22.179Z,2.67
2022-10-05T10:09:39.459Z,3.63
2022-10-05T10:14:50.242Z,3.40
2022-10-05T10:20:06.784Z,3.38
2022-10-05T10:25:34.753Z,3.33
2022-10-05T10:31:01.417Z,3.45
2022-10-05T10:36:21.661Z,2.88
2022-10-05T10:41:48.122Z,2.83
2022-10-05T10:47:06.313Z,2.58
2022-10-05T10:52:17.740Z,2.70
2022-10-05T10:57:35.306Z,2.83
2022-10-05T11:02:50.034Z,2.22
2022-10-05T11:08:23.936Z,2.20
2022-10-05T11:14:02.749Z,2.38
2022-10-05T11:19:16.772Z,2.30
2022-10-05T11:24:50.201Z,2.10
2022-10-05T11:30:10.880Z,1.70
2022-10-05T11:35:34.855Z,2.05
2022-10-05T11:41:12.526Z,1.92
2022-10-05T11:46:14.333Z,2.03
2022-10-05T11:51:40.499Z,1.80
2022-10-05T11:56:44.255Z,2.30
2022-10-05T12:01:57.294Z,1.70
2022-10-05T12:07:17.659Z,2.00
2022-10-05T12:12:29.750Z,1.52
2022-10-05T12:18:01.027Z,1.63
2022-10-05T12:23:14.703Z,1.50
2022-10-05T12:33:24.165Z,1.55
2022-10-05T12:38:28.621Z,1.58
2022-10-05T12:44:03.258Z,1.80
2022-10-05T12:49:42.413Z,1.60
2022-10-05T12:55:14.964Z,1.58
2022-10-05T13:00:22.957Z,1.90
2022-10-05T13:05:31.630Z,1.58
2022-10-05T13:11:01.864Z,1.60
2022-10-05T13:16:21.737Z,1.88
2022-10-05T13:21:26.813Z,1.42
2022-10-05T13:26:38.865Z,1.63
2022-10-05T13:31:53.256Z,1.58
2022-10-05T13:37:31.672Z,1.58
2022-10-05T13:42:46.132Z,1.90
2022-10-05T13:48:03.345Z,1.83
2022-10-05T13:53:24.444Z,1.98
2022-10-05T13:58:46.337Z,2.05
2022-10-05T14:04:06.307Z,2.25
2022-10-05T14:09:27.551Z,1.77
2022-10-05T14:14:42.319Z,1.90
2022-10-05T14:19:47.864Z,1.95
2022-10-05T14:25:01.910Z,1.98
2022-10-05T14:30:12.499Z,1.95
2022-10-05T14:35:17.903Z,1.80
2022-10-05T14:40:34.273Z,1.92
2022-10-05T14:45:36.489Z,1.60
2022-10-05T14:51:03.172Z,1.73
2022-10-05T14:56:17.047Z,1.70
2022-10-05T15:01:26.291Z,2.20
2022-10-05T15:06:44.786Z,2.03
2022-10-05T15:11:50.840Z,1.75
2022-10-05T15:17:04.430Z,1.70
2022-10-05T15:22:27.062Z,1.83
2022-10-05T15:27:28.811Z,1.48
2022-10-05T15:32:42.686Z,1.50
2022-10-05T15:42:54.711Z,1.90
2022-10-05T15:48:01.555Z,1.85
2022-10-05T15:53:49.532Z,1.77
2022-10-05T15:59:15.440Z,1.65
2022-10-05T16:04:35.779Z,1.92
2022-10-05T16:09:52.825Z,2.53
2022-10-05T16:15:16.803Z,1.90
2022-10-05T16:26:09.056Z,2.00
2022-10-05T16:31:19.552Z,2.00
2022-10-05T16:36:26.209Z,1.90
2022-10-05T16:41:35.311Z,1.75
2022-10-05T16:46:50.802Z,1.60
2022-10-05T16:52:00.260Z,1.80
2022-10-05T16:57:01.940Z,1.90
2022-10-05T17:02:07.210Z,1.90
2022-10-05T17:07:26.455Z,1.67
2022-10-05T17:12:53.791Z,1.67
2022-10-05T17:18:27.200Z,2.03
2022-10-05T17:23:41.753Z,1.80
2022-10-05T17:28:52.387Z,2.30
2022-10-05T17:34:00.215Z,1.92
2022-10-05T17:39:20.394Z,1.88
2022-10-05T17:44:24.868Z,1.90
2022-10-05T17:50:17.781Z,1.88
2022-10-05T17:55:31.596Z,2.15
2022-10-05T18:00:55.960Z,1.92
2022-10-05T18:11:38.322Z,2.22
2022-10-05T18:17:03.711Z,2.30
2022-10-05T18:22:15.469Z,2.78
2022-10-05T18:28:06.057Z,2.47
2022-10-05T18:33:13.895Z,2.50
2022-10-05T18:38:54.674Z,2.25
2022-10-05T18:44:03.375Z,2.28
2022-10-05T18:49:36.191Z,2.20
2022-10-05T18:54:54.774Z,2.17
2022-10-05T19:00:16.145Z,2.30
2022-10-05T19:06:01.154Z,2.30
2022-10-05T19:11:30.729Z,2.17
2022-10-05T19:17:01.692Z,2.15
2022-10-05T19:22:29.460Z,2.33
2022-10-05T19:27:55.355Z,2.20
2022-10-05T19:33:25.971Z,2.10
2022-10-05T19:39:03.867Z,2.10
2022-10-05T19:44:08.613Z,2.10
2022-10-05T19:49:10.795Z,2.20
2022-10-05T19:54:28.427Z,2.50
2022-10-05T19:59:34.623Z,2.85
2022-10-05T20:04:41.127Z,3.00
2022-10-05T20:10:14.329Z,2.53
2022-10-05T20:15:49.953Z,3.45
2022-10-05T20:20:51.885Z,2.72
2022-10-05T20:26:12.864Z,3.08
2022-10-05T20:31:14.717Z,3.20
2022-10-05T20:36:16.539Z,3.60
2022-10-05T20:46:23.039Z,3.67
2022-10-05T20:51:24.867Z,4.00
2022-10-05T20:56:26.960Z,4.05
2022-10-05T21:01:30.294Z,4.00
2022-10-05T21:06:32.415Z,3.83
2022-10-05T21:11:34.127Z,4.00
2022-10-05T21:16:38.081Z,3.85
2022-10-05T21:21:45.300Z,3.40
2022-10-05T21:26:47.709Z,3.60
2022-10-05T21:31:49.542Z,3.80
2022-10-05T21:36:51.509Z,3.58
2022-10-05T21:41:53.334Z,3.33
2022-10-05T21:46:55.485Z,3.20
2022-10-05T21:51:59.287Z,3.00
2022-10-05T21:57:01.197Z,2.90
2022-10-05T22:02:03.485Z,3.20
2022-10-05T22:07:19.044Z,2.70
2022-10-05T22:12:21.511Z,2.47
2022-10-05T22:17:27.310Z,2.88
2022-10-05T22:22:29.433Z,2.42
2022-10-05T22:27:32.370Z,2.10
2022-10-05T22:32:34.075Z,2.40
2022-10-05T22:37:37.948Z,2.20
2022-10-05T22:42:40.472Z,2.50
2022-10-05T22:47:42.975Z,2.33
2022-10-05T22:52:44.809Z,2.30
2022-10-05T22:57:46.572Z,2.50
2022-10-05T23:02:48.396Z,2.53
2022-10-05T23:07:50.125Z,2.53
2022-10-05T23:13:00.553Z,2.45
2022-10-05T23:18:02.902Z,2.15
2022-10-05T23:23:04.625Z,2.10
2022-10-05T23:28:06.539Z,2.25
2022-10-05T23:33:08.293Z,2.28
2022-10-05T23:38:10.015Z,2.60
2022-10-05T23:43:11.757Z,1.85
2022-10-05T23:48:13.746Z,2.10
2022-10-05T23:53:16.424Z,2.00
2022-10-05T23:58:18.258Z,2.03
